Time;durP1;ratioP1;P1;durP2;ratioP2;P2;SDS_P1;SDS_P2;PMS_P1;PMS_P2;Temp;Humidity;BMP_temperature;BMP_pressure;BME280_temperature;BME280_humidity;BME280_pressure;Samples;Min_cycle;Max_cycle;Signal;HPM_P1;HPM_P2
2022/06/11 00:01:17;;;;;;;11.35;3.50;;;;;;;;;;4958886;28;20058;-74
2022/06/11 00:03:44;;;;;;;14.90;3.20;;;;;;;;;;4966972;28;20038;-72
2022/06/11 00:06:10;;;;;;;12.35;3.50;;;;;;;;;;4960696;28;20047;-72
2022/06/11 00:08:38;;;;;;;12.85;3.70;;;;;;;;;;4968237;28;20102;-71
2022/06/11 00:11:06;;;;;;;12.63;3.17;;;;;;;;;;4971960;28;20042;-71
2022/06/11 00:13:33;;;;;;;9.70;3.50;;;;;;;;;;4971979;28;20464;-71
2022/06/11 00:16:01;;;;;;;13.98;3.30;;;;;;;;;;4970565;28;20354;-72
2022/06/11 00:18:27;;;;;;;19.23;3.42;;;;;;;;;;4972064;28;20046;-68
2022/06/11 00:20:53;;;;;;;12.35;4.05;;;;;;;;;;4970677;28;20085;-73
2022/06/11 00:23:19;;;;;;;13.40;3.40;;;;;;;;;;4969855;28;20062;-70
2022/06/11 00:25:45;;;;;;;12.93;3.25;;;;;;;;;;4967965;28;20138;-72
2022/06/11 00:28:11;;;;;;;11.75;3.80;;;;;;;;;;4971786;28;20039;-71
2022/06/11 00:30:37;;;;;;;11.85;3.45;;;;;;;;;;4968506;28;20051;-72
2022/06/11 00:33:06;;;;;;;11.55;3.70;;;;;;;;;;4966783;28;20479;-71
2022/06/11 00:35:34;;;;;;;17.23;3.42;;;;;;;;;;4966338;28;20038;-72
2022/06/11 00:38:00;;;;;;;13.43;3.47;;;;;;;;;;4970046;28;20035;-71
2022/06/11 00:40:28;;;;;;;11.63;3.50;;;;;;;;;;4970453;28;20209;-73
2022/06/11 00:42:54;;;;;;;14.40;3.60;;;;;;;;;;4971050;28;20142;-73
2022/06/11 00:45:23;;;;;;;13.75;3.33;;;;;;;;;;4971160;28;20095;-69
2022/06/11 00:48:13;;;;;;;12.40;3.28;;;;;;;;;;4970975;28;20091;-72
2022/06/11 00:50:44;;;;;;;13.45;3.65;;;;;;;;;;4953313;28;20059;-72
2022/06/11 00:53:24;;;;;;;13.15;3.40;;;;;;;;;;4971104;28;20050;-74
2022/06/11 00:55:50;;;;;;;8.45;2.88;;;;;;;;;;4959080;28;20497;-71
2022/06/11 00:58:24;;;;;;;12.10;3.40;;;;;;;;;;4967401;28;20456;-74
2022/06/11 01:00:54;;;;;;;12.18;3.67;;;;;;;;;;4971118;28;20559;-72
2022/06/11 01:03:29;;;;;;;7.80;2.90;;;;;;;;;;4969718;28;20097;-71
2022/06/11 01:06:07;;;;;;;;;;;;;;;;;;4959463;28;20089;-71
2022/06/11 01:09:02;;;;;;;11.93;3.38;;;;;;;;;;4967952;28;20328;-72
2022/06/11 01:11:50;;;;;;;9.05;2.88;;;;;;;;;;4962266;28;20050;-72
2022/06/11 01:14:37;;;;;;;11.05;3.42;;;;;;;;;;4969985;28;20455;-73
2022/06/11 01:17:06;;;;;;;17.40;3.08;;;;;;;;;;4958497;28;20069;-69
2022/06/11 01:19:46;;;;;;;9.10;2.92;;;;;;;;;;4958874;28;20051;-71
2022/06/11 01:22:26;;;;;;;10.35;3.42;;;;;;;;;;4971747;28;20397;-72
2022/06/11 01:25:22;;;;;;;9.65;3.25;;;;;;;;;;4971010;28;20062;-72
2022/06/11 01:28:00;;;;;;;14.02;3.63;;;;;;;;;;4968115;28;20058;-71
2022/06/11 01:30:32;;;;;;;12.65;3.30;;;;;;;;;;4966648;28;20066;-69
2022/06/11 01:33:41;;;;;;;13.93;3.72;;;;;;;;;;4970619;28;20047;-74
2022/06/11 01:36:27;;;;;;;14.73;3.90;;;;;;;;;;4958726;28;20074;-70
2022/06/11 01:39:03;;;;;;;10.70;3.47;;;;;;;;;;4966528;28;20135;-71
2022/06/11 01:41:47;;;;;;;12.98;3.30;;;;;;;;;;4969924;28;20066;-70
2022/06/11 01:44:19;;;;;;;14.52;3.78;;;;;;;;;;4968547;28;20074;-72
2022/06/11 01:46:50;;;;;;;12.80;3.47;;;;;;;;;;4963624;28;20440;-72
2022/06/11 01:49:25;;;;;;;14.55;3.60;;;;;;;;;;4961964;28;20101;-71
2022/06/11 01:52:14;;;;;;;11.02;3.35;;;;;;;;;;4969121;28;20519;-73
2022/06/11 01:55:01;;;;;;;13.00;3.38;;;;;;;;;;4962252;28;20441;-72
2022/06/11 01:57:36;;;;;;;10.55;3.20;;;;;;;;;;4966583;28;20113;-73
2022/06/11 02:00:09;;;;;;;17.92;3.30;;;;;;;;;;4949769;28;20381;-74
2022/06/11 02:02:44;;;;;;;15.05;4.25;;;;;;;;;;4964735;28;20051;-74
2022/06/11 02:05:31;;;;;;;9.43;3.30;;;;;;;;;;4959741;28;20267;-74
2022/06/11 02:08:06;;;;;;;12.43;3.72;;;;;;;;;;4950983;28;20051;-74
2022/06/11 02:10:44;;;;;;;7.63;2.72;;;;;;;;;;4966401;28;20050;-71
2022/06/11 02:13:20;;;;;;;8.98;3.35;;;;;;;;;;4964128;28;20050;-71
2022/06/11 02:15:54;;;;;;;12.65;3.65;;;;;;;;;;4968133;28;20062;-70
2022/06/11 02:18:23;;;;;;;13.50;3.25;;;;;;;;;;4968995;28;20082;-69
2022/06/11 02:20:55;;;;;;;11.90;3.55;;;;;;;;;;4969368;28;20101;-72
2022/06/11 02:23:29;;;;;;;15.48;3.53;;;;;;;;;;4965785;28;20055;-71
2022/06/11 02:26:04;;;;;;;10.43;3.22;;;;;;;;;;4969213;28;20383;-71
2022/06/11 02:28:36;;;;;;;11.40;2.97;;;;;;;;;;4968677;28;20050;-72
2022/06/11 02:31:06;;;;;;;11.65;3.22;;;;;;;;;;4965810;28;20050;-73
2022/06/11 02:33:34;;;;;;;10.90;3.38;;;;;;;;;;4966995;28;20050;-70
2022/06/11 02:36:18;;;;;;;10.85;3.30;;;;;;;;;;4964564;28;20135;-71
2022/06/11 02:38:44;;;;;;;;;;;;;;;;;;4969603;28;20105;-72
2022/06/11 02:41:25;;;;;;;16.35;3.60;;;;;;;;;;4967503;28;19922;-73
2022/06/11 02:43:51;;;;;;;11.90;3.72;;;;;;;;;;4967495;28;20065;-69
2022/06/11 02:49:02;;;;;;;14.07;3.55;;;;;;;;;;4957451;28;20496;-71
2022/06/11 02:51:30;;;;;;;9.95;3.30;;;;;;;;;;4967355;28;20045;-73
2022/06/11 02:53:57;;;;;;;7.78;3.08;;;;;;;;;;4967442;28;20043;-72
2022/06/11 02:56:24;;;;;;;10.60;3.25;;;;;;;;;;4967743;28;20129;-70
2022/06/11 02:58:50;;;;;;;9.30;2.90;;;;;;;;;;4966942;28;20042;-71
2022/06/11 03:01:19;;;;;;;13.13;3.08;;;;;;;;;;4968142;28;20185;-72
2022/06/11 03:03:45;;;;;;;10.80;2.97;;;;;;;;;;4958693;28;20055;-72
2022/06/11 03:06:11;;;;;;;11.77;3.30;;;;;;;;;;4968309;28;20069;-73
2022/06/11 03:08:37;;;;;;;9.27;2.80;;;;;;;;;;4967021;28;20050;-70
2022/06/11 03:11:03;;;;;;;11.05;3.55;;;;;;;;;;4967987;28;20057;-74
2022/06/11 03:13:30;;;;;;;10.32;3.58;;;;;;;;;;4964139;28;20043;-72
2022/06/11 03:15:57;;;;;;;12.70;3.30;;;;;;;;;;4968673;28;20050;-70
2022/06/11 03:18:23;;;;;;;10.68;3.53;;;;;;;;;;4968914;28;20051;-75
2022/06/11 03:20:53;;;;;;;11.70;3.08;;;;;;;;;;4965894;28;20125;-75
2022/06/11 03:23:19;;;;;;;16.27;3.58;;;;;;;;;;4959437;28;20078;-72
2022/06/11 03:25:46;;;;;;;15.00;3.47;;;;;;;;;;4966463;28;20050;-73
2022/06/11 03:28:18;;;;;;;14.57;3.83;;;;;;;;;;4957538;28;20047;-72
2022/06/11 03:30:45;;;;;;;11.30;3.55;;;;;;;;;;4967579;28;20070;-71
2022/06/11 03:33:11;;;;;;;16.88;5.13;;;;;;;;;;4968114;28;20050;-71
2022/06/11 03:35:37;;;;;;;14.77;5.90;;;;;;;;;;4967643;28;20058;-72
2022/06/11 03:38:07;;;;;;;13.02;5.97;;;;;;;;;;4963794;28;20043;-72
2022/06/11 03:40:34;;;;;;;15.00;5.07;;;;;;;;;;4962352;28;20080;-71
2022/06/11 03:43:00;;;;;;;10.02;3.83;;;;;;;;;;4965833;28;20479;-72
2022/06/11 03:45:27;;;;;;;11.13;3.40;;;;;;;;;;4968041;28;20510;-70
2022/06/11 03:47:53;;;;;;;12.20;3.47;;;;;;;;;;4967510;28;20059;-71
2022/06/11 03:50:24;;;;;;;10.45;3.67;;;;;;;;;;4967527;28;20047;-71
2022/06/11 03:52:51;;;;;;;15.07;4.35;;;;;;;;;;4958559;28;20061;-72
2022/06/11 03:55:17;;;;;;;10.45;3.85;;;;;;;;;;4967791;28;20055;-71
2022/06/11 03:57:44;;;;;;;11.25;3.97;;;;;;;;;;4962500;28;20038;-71
2022/06/11 04:00:14;;;;;;;13.35;4.30;;;;;;;;;;4954832;28;20159;-73
2022/06/11 04:02:40;;;;;;;10.35;3.90;;;;;;;;;;4963531;28;20117;-72
2022/06/11 04:05:07;;;;;;;13.48;3.97;;;;;;;;;;4962769;28;20051;-72
2022/06/11 04:07:33;;;;;;;14.38;4.07;;;;;;;;;;4965787;28;20070;-73
2022/06/11 04:10:00;;;;;;;14.63;3.83;;;;;;;;;;4967798;28;20051;-68
2022/06/11 04:12:25;;;;;;;13.20;4.13;;;;;;;;;;4968106;28;20504;-71
2022/06/11 04:14:52;;;;;;;11.40;3.95;;;;;;;;;;4967050;28;20379;-72
2022/06/11 04:17:27;;;;;;;19.48;4.00;;;;;;;;;;4966435;28;20050;-72
2022/06/11 04:19:54;;;;;;;12.93;4.80;;;;;;;;;;4959389;28;20093;-73
2022/06/11 04:22:20;;;;;;;15.77;4.13;;;;;;;;;;4967231;28;20045;-68
2022/06/11 04:24:47;;;;;;;14.55;4.25;;;;;;;;;;4965363;28;20137;-68
2022/06/11 04:27:16;;;;;;;15.38;4.15;;;;;;;;;;4955693;28;20047;-73
2022/06/11 04:29:46;;;;;;;11.20;3.92;;;;;;;;;;4952292;28;20043;-71
2022/06/11 04:32:15;;;;;;;13.85;3.97;;;;;;;;;;4966627;28;20063;-73
2022/06/11 04:34:44;;;;;;;12.15;3.90;;;;;;;;;;4967858;28;20141;-71
2022/06/11 04:37:13;;;;;;;12.75;4.10;;;;;;;;;;4963364;28;20435;-72
2022/06/11 04:39:42;;;;;;;12.40;4.15;;;;;;;;;;4965291;28;20097;-71
2022/06/11 04:42:12;;;;;;;13.43;3.80;;;;;;;;;;4958895;28;20089;-72
2022/06/11 04:44:39;;;;;;;10.48;3.95;;;;;;;;;;4967923;28;20053;-71
2022/06/11 04:47:07;;;;;;;17.58;4.53;;;;;;;;;;4968150;28;20504;-69
2022/06/11 04:49:33;;;;;;;15.18;4.60;;;;;;;;;;4965701;28;20059;-70
2022/06/11 04:51:59;;;;;;;17.95;4.32;;;;;;;;;;4966679;28;20047;-71
2022/06/11 04:54:25;;;;;;;12.35;4.07;;;;;;;;;;4968033;28;20499;-71
2022/06/11 04:56:51;;;;;;;14.35;4.15;;;;;;;;;;4968680;28;20388;-72
2022/06/11 04:59:17;;;;;;;9.20;3.70;;;;;;;;;;4960731;28;20243;-73
2022/06/11 05:01:44;;;;;;;14.52;3.85;;;;;;;;;;4970761;28;20055;-73
2022/06/11 05:04:12;;;;;;;14.00;3.67;;;;;;;;;;4957758;28;20129;-73
2022/06/11 05:06:41;;;;;;;12.98;4.05;;;;;;;;;;4970230;28;20050;-72
2022/06/11 05:09:13;;;;;;;10.77;4.03;;;;;;;;;;4971209;28;20043;-70
2022/06/11 05:11:40;;;;;;;8.07;4.05;;;;;;;;;;4968589;28;20058;-72
2022/06/11 05:14:06;;;;;;;9.65;3.45;;;;;;;;;;4970872;28;20097;-72
2022/06/11 05:16:33;;;;;;;11.32;4.25;;;;;;;;;;4970229;28;20539;-71
2022/06/11 05:18:59;;;;;;;13.63;4.25;;;;;;;;;;4969783;28;20053;-69
2022/06/11 05:21:26;;;;;;;13.70;4.43;;;;;;;;;;4968754;28;20047;-73
2022/06/11 05:23:51;;;;;;;13.70;3.92;;;;;;;;;;4967254;28;20145;-69
2022/06/11 05:26:21;;;;;;;15.45;4.32;;;;;;;;;;4966767;28;20061;-75
2022/06/11 05:28:48;;;;;;;15.38;4.47;;;;;;;;;;4970861;28;20046;-71
2022/06/11 05:31:14;;;;;;;12.93;4.20;;;;;;;;;;4969805;28;20043;-72
2022/06/11 05:33:41;;;;;;;11.63;3.60;;;;;;;;;;4969050;28;20413;-74
2022/06/11 05:36:07;;;;;;;16.15;4.20;;;;;;;;;;4967586;28;20121;-74
2022/06/11 05:38:33;;;;;;;12.57;4.32;;;;;;;;;;4958539;28;20055;-74
2022/06/11 05:40:59;;;;;;;15.90;4.32;;;;;;;;;;4971168;28;20047;-73
2022/06/11 05:43:26;;;;;;;16.38;4.72;;;;;;;;;;4966881;28;20046;-74
2022/06/11 05:46:13;;;;;;;17.42;4.38;;;;;;;;;;4968531;28;20043;-72
2022/06/11 05:48:43;;;;;;;12.32;4.13;;;;;;;;;;4971688;28;20043;-72
2022/06/11 05:51:15;;;;;;;16.60;4.65;;;;;;;;;;4970629;28;20120;-71
2022/06/11 05:53:42;;;;;;;14.55;4.70;;;;;;;;;;4965534;28;20408;-75
2022/06/11 05:56:10;;;;;;;12.10;4.03;;;;;;;;;;4970242;28;20066;-72
2022/06/11 05:59:04;;;;;;;9.88;3.72;;;;;;;;;;4969121;28;20509;-72
2022/06/11 06:01:35;;;;;;;12.20;4.10;;;;;;;;;;4965983;28;20389;-71
2022/06/11 06:04:01;;;;;;;14.07;4.60;;;;;;;;;;4970023;28;20142;-72
2022/06/11 06:06:27;;;;;;;22.48;4.55;;;;;;;;;;4969316;28;20090;-71
2022/06/11 06:08:53;;;;;;;13.80;4.18;;;;;;;;;;4969967;28;20112;-73
2022/06/11 06:11:18;;;;;;;11.82;4.30;;;;;;;;;;4969479;28;20544;-73
2022/06/11 06:13:47;;;;;;;18.25;4.28;;;;;;;;;;4970097;28;20500;-73
2022/06/11 06:16:21;;;;;;;18.80;4.15;;;;;;;;;;4968876;28;20092;-75
2022/06/11 06:18:48;;;;;;;10.30;3.90;;;;;;;;;;4961555;28;20066;-74
2022/06/11 06:21:16;;;;;;;13.38;3.55;;;;;;;;;;4969418;28;20350;-73
2022/06/11 06:23:42;;;;;;;12.27;3.25;;;;;;;;;;4964817;28;20061;-77
2022/06/11 06:26:07;;;;;;;14.70;3.22;;;;;;;;;;4964013;28;20042;-72
2022/06/11 06:28:34;;;;;;;13.15;3.58;;;;;;;;;;4970099;28;20432;-72
2022/06/11 06:31:02;;;;;;;15.65;4.00;;;;;;;;;;4964697;28;20579;-74
2022/06/11 06:33:30;;;;;;;13.02;3.30;;;;;;;;;;4967037;28;20043;-72
2022/06/11 06:35:57;;;;;;;13.70;3.33;;;;;;;;;;4965734;28;20047;-72
2022/06/11 06:38:23;;;;;;;13.65;3.40;;;;;;;;;;4969027;28;20034;-74
2022/06/11 06:40:49;;;;;;;9.82;3.30;;;;;;;;;;4968490;28;20463;-71
2022/06/11 06:43:15;;;;;;;13.25;3.88;;;;;;;;;;4968087;28;20066;-76
2022/06/11 06:45:41;;;;;;;20.33;3.40;;;;;;;;;;4964822;28;20484;-72
2022/06/11 06:48:07;;;;;;;12.73;3.78;;;;;;;;;;4962281;28;20384;-72
2022/06/11 06:50:33;;;;;;;11.40;3.47;;;;;;;;;;4963496;28;20039;-72
2022/06/11 06:52:59;;;;;;;12.57;3.17;;;;;;;;;;4966512;28;20364;-73
2022/06/11 06:55:25;;;;;;;10.88;3.25;;;;;;;;;;4960026;28;20419;-71
2022/06/11 06:57:51;;;;;;;14.32;3.58;;;;;;;;;;4965496;28;20381;-70
2022/06/11 07:00:19;;;;;;;8.75;2.83;;;;;;;;;;4962758;28;20419;-70
2022/06/11 07:02:45;;;;;;;16.27;3.83;;;;;;;;;;4958836;28;20406;-71
2022/06/11 07:05:12;;;;;;;12.90;3.40;;;;;;;;;;4960921;28;20406;-70
2022/06/11 07:07:38;;;;;;;12.70;3.28;;;;;;;;;;4961354;28;20055;-73
2022/06/11 07:10:06;;;;;;;12.85;2.92;;;;;;;;;;4964322;28;20133;-73
2022/06/11 07:12:32;;;;;;;12.35;2.83;;;;;;;;;;4962503;28;20062;-76
2022/06/11 07:14:58;;;;;;;11.98;3.60;;;;;;;;;;4964613;28;20049;-73
2022/06/11 07:17:28;;;;;;;11.85;3.13;;;;;;;;;;4965994;28;20070;-71
2022/06/11 07:20:01;;;;;;;12.13;3.22;;;;;;;;;;4964770;28;20051;-72
2022/06/11 07:22:42;;;;;;;13.27;3.13;;;;;;;;;;4961937;28;20111;-71
2022/06/11 07:25:10;;;;;;;14.20;3.75;;;;;;;;;;4965074;28;20424;-71
2022/06/11 07:27:41;;;;;;;8.93;3.00;;;;;;;;;;4966214;28;20118;-72
2022/06/11 07:30:12;;;;;;;11.50;3.30;;;;;;;;;;4966092;28;20051;-71
2022/06/11 07:32:39;;;;;;;8.82;3.13;;;;;;;;;;4963007;28;20157;-72
2022/06/11 07:35:08;;;;;;;10.07;3.00;;;;;;;;;;4965306;28;20065;-69
2022/06/11 07:37:35;;;;;;;12.85;3.08;;;;;;;;;;4960138;28;20074;-71
2022/06/11 07:40:03;;;;;;;16.55;5.30;;;;;;;;;;4955138;28;20331;-70
2022/06/11 07:42:29;;;;;;;16.13;2.85;;;;;;;;;;4945239;28;20051;-71
2022/06/11 07:44:55;;;;;;;9.55;3.03;;;;;;;;;;4944794;28;20043;-71
2022/06/11 07:50:07;;;;;;;16.08;2.92;;;;;;;;;;4950561;28;20051;-74
2022/06/11 07:52:33;;;;;;;12.65;2.70;;;;;;;;;;4955202;28;20043;-71
2022/06/11 07:54:59;;;;;;;7.05;2.50;;;;;;;;;;4953537;28;20043;-72
2022/06/11 07:57:25;;;;;;;10.73;3.17;;;;;;;;;;4952080;28;20085;-72
2022/06/11 07:59:51;;;;;;;13.75;2.97;;;;;;;;;;4945991;28;20198;-73
2022/06/11 08:02:16;;;;;;;13.93;3.33;;;;;;;;;;4945188;28;20150;-73
2022/06/11 08:04:42;;;;;;;12.55;3.10;;;;;;;;;;4948529;28;20364;-72
2022/06/11 08:07:08;;;;;;;17.98;3.20;;;;;;;;;;4961997;28;20165;-71
2022/06/11 08:09:34;;;;;;;13.23;2.72;;;;;;;;;;4961453;28;20220;-71
2022/06/11 08:12:00;;;;;;;6.47;2.17;;;;;;;;;;4964036;28;20043;-70
2022/06/11 08:14:26;;;;;;;15.68;2.75;;;;;;;;;;4963830;28;20109;-73
2022/06/11 08:16:52;;;;;;;12.70;2.65;;;;;;;;;;4964837;28;20038;-71
2022/06/11 08:19:17;;;;;;;9.32;2.67;;;;;;;;;;4965374;28;20049;-71
2022/06/11 08:21:43;;;;;;;6.57;2.53;;;;;;;;;;4966032;28;20125;-70
2022/06/11 08:24:09;;;;;;;10.77;3.35;;;;;;;;;;4967775;28;20053;-71
2022/06/11 08:26:35;;;;;;;12.25;2.85;;;;;;;;;;4963235;28;20047;-75
2022/06/11 08:29:01;;;;;;;13.70;2.38;;;;;;;;;;4949870;28;20043;-74
2022/06/11 08:31:27;;;;;;;9.98;2.83;;;;;;;;;;4964590;28;21094;-73
2022/06/11 08:33:52;;;;;;;14.00;2.95;;;;;;;;;;4968167;28;20042;-72
2022/06/11 08:36:18;;;;;;;11.98;2.53;;;;;;;;;;4966681;28;20546;-74
2022/06/11 08:38:44;;;;;;;13.93;2.88;;;;;;;;;;4970978;28;20047;-76
2022/06/11 08:41:24;;;;;;;10.95;3.00;;;;;;;;;;4970794;28;20053;-75
2022/06/11 08:44:00;;;;;;;6.30;2.42;;;;;;;;;;4970203;28;20077;-79
2022/06/11 08:46:32;;;;;;;11.85;2.40;;;;;;;;;;4964718;28;20459;-81
2022/06/11 08:49:04;;;;;;;10.05;2.17;;;;;;;;;;4970471;28;20097;-73
2022/06/11 08:51:52;;;;;;;8.80;2.05;;;;;;;;;;4970064;28;20063;-74
2022/06/11 08:54:33;;;;;;;7.72;2.20;;;;;;;;;;4969322;28;20461;-74
2022/06/11 08:57:13;;;;;;;10.88;2.10;;;;;;;;;;4966400;28;20145;-72
2022/06/11 08:59:54;;;;;;;8.43;2.22;;;;;;;;;;4962384;28;20393;-71
2022/06/11 09:02:56;;;;;;;11.18;2.30;;;;;;;;;;4967096;28;20050;-72
2022/06/11 09:05:55;;;;;;;10.63;3.60;;;;;;;;;;4969287;28;20074;-76
2022/06/11 09:08:42;;;;;;;9.98;2.35;;;;;;;;;;4969663;28;20062;-74
2022/06/11 09:11:32;;;;;;;7.90;2.50;;;;;;;;;;4957841;28;20057;-75
2022/06/11 09:14:22;;;;;;;8.82;2.35;;;;;;;;;;4958949;28;20071;-79
2022/06/11 09:17:20;;;;;;;6.55;2.20;;;;;;;;;;4966983;28;20421;-74
2022/06/11 09:20:09;;;;;;;10.85;2.83;;;;;;;;;;4959849;28;20046;-72
2022/06/11 09:22:47;;;;;;;12.80;2.60;;;;;;;;;;4955394;28;20051;-71
2022/06/11 09:25:31;;;;;;;9.93;3.38;;;;;;;;;;4960255;28;20485;-71
2022/06/11 09:28:03;;;;;;;12.82;3.47;;;;;;;;;;4948990;28;20157;-72
2022/06/11 09:30:46;;;;;;;11.48;4.38;;;;;;;;;;4953085;28;20056;-71
2022/06/11 09:33:22;;;;;;;7.93;2.10;;;;;;;;;;4953122;28;20046;-69
2022/06/11 09:35:54;;;;;;;7.05;2.63;;;;;;;;;;4950864;28;20066;-69
2022/06/11 09:38:33;;;;;;;12.48;3.15;;;;;;;;;;4951255;28;20141;-71
2022/06/11 09:41:26;;;;;;;15.73;3.80;;;;;;;;;;4948345;28;20119;-69
2022/06/11 09:44:03;;;;;;;11.15;3.33;;;;;;;;;;4951648;28;20177;-71
2022/06/11 09:46:43;;;;;;;12.52;3.40;;;;;;;;;;4952964;28;20151;-71
2022/06/11 09:49:38;;;;;;;17.55;3.80;;;;;;;;;;4961774;28;20421;-70
2022/06/11 09:52:21;;;;;;;19.00;4.65;;;;;;;;;;4966753;28;20053;-73
2022/06/11 09:54:56;;;;;;;14.48;3.85;;;;;;;;;;4961419;28;20046;-71
2022/06/11 09:57:45;;;;;;;12.50;4.05;;;;;;;;;;4960259;28;20581;-73
2022/06/11 10:00:25;;;;;;;12.88;3.80;;;;;;;;;;4969621;28;20050;-74
2022/06/11 10:06:16;;;;;;;16.80;4.40;;;;;;;;;;4969198;28;20124;-72
2022/06/11 10:08:45;;;;;;;13.95;3.70;;;;;;;;;;4968462;28;20045;-73
2022/06/11 10:11:18;;;;;;;10.10;3.53;;;;;;;;;;4962468;28;20410;-72
2022/06/11 10:14:28;;;;;;;15.63;3.95;;;;;;;;;;4970533;28;20079;-71
2022/06/11 10:16:56;;;;;;;12.65;4.03;;;;;;;;;;4944252;28;20468;-75
2022/06/11 10:19:44;;;;;;;11.27;3.45;;;;;;;;;;4953480;28;20047;-68
2022/06/11 10:22:29;;;;;;;12.25;3.35;;;;;;;;;;4954717;28;20392;-69
2022/06/11 10:25:09;;;;;;;15.73;3.72;;;;;;;;;;4955154;28;20061;-70
2022/06/11 10:27:39;;;;;;;10.80;3.78;;;;;;;;;;4961785;28;20054;-70
2022/06/11 10:30:15;;;;;;;18.10;4.30;;;;;;;;;;4962004;28;20397;-68
2022/06/11 10:32:44;;;;;;;13.18;4.07;;;;;;;;;;4955612;28;20051;-70
2022/06/11 10:35:36;;;;;;;11.68;3.78;;;;;;;;;;4958492;28;20051;-78
2022/06/11 10:38:19;;;;;;;15.57;3.83;;;;;;;;;;4953486;28;20058;-69
2022/06/11 10:40:49;;;;;;;9.90;2.90;;;;;;;;;;4959132;28;20438;-71
2022/06/11 10:43:32;;;;;;;13.85;3.53;;;;;;;;;;4961770;28;20105;-70
2022/06/11 10:45:58;;;;;;;12.00;3.15;;;;;;;;;;4959897;28;20061;-70
2022/06/11 10:48:31;;;;;;;12.85;3.20;;;;;;;;;;4963497;28;20069;-75
2022/06/11 10:50:58;;;;;;;16.75;3.22;;;;;;;;;;4960668;28;20046;-71
2022/06/11 10:53:30;;;;;;;9.70;2.75;;;;;;;;;;4955760;28;20059;-74
2022/06/11 10:56:17;;;;;;;9.45;3.05;;;;;;;;;;4959463;28;20117;-72
2022/06/11 10:58:47;;;;;;;11.35;3.13;;;;;;;;;;4960420;28;20054;-72
2022/06/11 11:01:31;;;;;;;10.88;3.00;;;;;;;;;;4958104;28;20069;-73
2022/06/11 11:03:58;;;;;;;12.60;3.20;;;;;;;;;;4958581;28;20154;-72
2022/06/11 11:06:27;;;;;;;12.30;2.92;;;;;;;;;;4961827;28;20054;-71
2022/06/11 11:08:56;;;;;;;11.43;2.75;;;;;;;;;;4960228;28;20675;-72
2022/06/11 11:11:23;;;;;;;9.20;2.70;;;;;;;;;;4957175;28;20485;-69
2022/06/11 11:13:56;;;;;;;10.07;2.97;;;;;;;;;;4959775;28;20063;-72
2022/06/11 11:16:29;;;;;;;9.27;3.00;;;;;;;;;;4961438;28;20065;-72
2022/06/11 11:19:05;;;;;;;10.75;3.13;;;;;;;;;;4962647;28;20133;-71
2022/06/11 11:21:38;;;;;;;10.15;2.67;;;;;;;;;;4960460;28;20051;-67
2022/06/11 11:24:15;;;;;;;8.55;3.33;;;;;;;;;;4960390;28;20073;-72
2022/06/11 11:26:47;;;;;;;8.85;2.88;;;;;;;;;;4961944;28;20489;-72
2022/06/11 11:29:19;;;;;;;15.20;3.03;;;;;;;;;;4958729;28;20055;-70
2022/06/11 11:31:49;;;;;;;9.93;2.47;;;;;;;;;;4959349;28;20042;-69
2022/06/11 11:34:24;;;;;;;9.18;2.60;;;;;;;;;;4960560;28;20089;-69
2022/06/11 11:36:57;;;;;;;11.25;2.50;;;;;;;;;;4961775;28;20132;-70
2022/06/11 11:39:31;;;;;;;10.85;2.25;;;;;;;;;;4960772;28;20058;-71
2022/06/11 11:42:18;;;;;;;9.52;2.40;;;;;;;;;;4963339;28;20050;-71
2022/06/11 11:44:50;;;;;;;9.07;3.15;;;;;;;;;;4956792;28;20055;-69
2022/06/11 11:47:27;;;;;;;5.38;2.13;;;;;;;;;;4959507;28;20537;-69
2022/06/11 11:49:57;;;;;;;11.90;2.58;;;;;;;;;;4961059;28;20054;-70
2022/06/11 11:52:26;;;;;;;32.55;8.15;;;;;;;;;;4962603;28;20055;-69
2022/06/11 11:55:06;;;;;;;13.40;4.13;;;;;;;;;;4959563;28;20346;-70
2022/06/11 11:57:33;;;;;;;14.63;2.90;;;;;;;;;;4959535;28;20063;-71
2022/06/11 12:00:24;;;;;;;15.43;3.08;;;;;;;;;;4963000;28;20212;-69
2022/06/11 12:02:55;;;;;;;12.85;3.33;;;;;;;;;;4956544;28;20057;-71
2022/06/11 12:05:28;;;;;;;12.88;4.07;;;;;;;;;;4957478;28;20561;-72
2022/06/11 12:07:55;;;;;;;;;;;;;;;;;;4964907;28;20061;-72
2022/06/11 12:10:29;;;;;;;29.30;10.45;;;;;;;;;;4962815;28;19922;-71
2022/06/11 12:12:57;;;;;;;16.30;8.00;;;;;;;;;;4963440;28;20059;-70
2022/06/11 12:15:27;;;;;;;20.73;8.18;;;;;;;;;;4952704;28;20102;-72
2022/06/11 12:18:17;;;;;;;12.60;5.05;;;;;;;;;;4957817;28;20050;-69
2022/06/11 12:20:47;;;;;;;10.70;3.42;;;;;;;;;;4963726;28;20134;-72
2022/06/11 12:23:44;;;;;;;8.88;2.60;;;;;;;;;;4959680;28;20348;-68
2022/06/11 12:26:21;;;;;;;13.52;2.55;;;;;;;;;;4955632;28;20515;-70
2022/06/11 12:28:57;;;;;;;7.60;2.30;;;;;;;;;;4961581;28;20042;-72
2022/06/11 12:31:25;;;;;;;5.68;2.10;;;;;;;;;;4962786;28;20138;-72
2022/06/11 12:33:52;;;;;;;7.70;2.25;;;;;;;;;;4964250;28;20043;-77
2022/06/11 12:36:42;;;;;;;6.63;2.10;;;;;;;;;;4962303;28;20058;-76
2022/06/11 12:39:22;;;;;;;8.98;2.25;;;;;;;;;;4964939;28;20053;-74
2022/06/11 12:42:10;;;;;;;10.05;2.60;;;;;;;;;;4964940;28;20046;-74
2022/06/11 12:44:36;;;;;;;8.07;2.15;;;;;;;;;;4962929;28;20055;-74
2022/06/11 12:47:02;;;;;;;6.47;2.47;;;;;;;;;;4965278;28;20151;-74
2022/06/11 12:49:36;;;;;;;10.10;2.72;;;;;;;;;;4964944;28;20134;-74
2022/06/11 12:52:22;;;;;;;13.13;2.80;;;;;;;;;;4965194;28;20773;-74
2022/06/11 12:55:06;;;;;;;13.40;3.42;;;;;;;;;;4959748;28;20042;-74
2022/06/11 12:57:32;;;;;;;19.40;6.88;;;;;;;;;;4965810;28;20042;-74
2022/06/11 13:00:45;;;;;;;11.02;3.35;;;;;;;;;;4963825;28;20353;-76
2022/06/11 13:03:30;;;;;;;11.82;4.32;;;;;;;;;;4933105;28;20062;-72
2022/06/11 13:06:19;;;;;;;15.68;4.85;;;;;;;;;;4959336;28;20595;-74
2022/06/11 13:09:01;;;;;;;13.40;4.20;;;;;;;;;;4963491;28;20078;-73
2022/06/11 13:11:33;;;;;;;13.73;4.15;;;;;;;;;;4965033;28;20050;-74
2022/06/11 13:14:29;;;;;;;12.00;3.75;;;;;;;;;;4965252;28;20113;-74
2022/06/11 13:17:01;;;;;;;10.55;3.65;;;;;;;;;;4964969;28;20986;-76
2022/06/11 13:19:37;;;;;;;15.40;3.00;;;;;;;;;;4963477;28;20108;-75
2022/06/11 13:22:11;;;;;;;11.25;2.95;;;;;;;;;;4964709;28;21059;-76
2022/06/11 13:25:11;;;;;;;10.05;2.83;;;;;;;;;;4964069;28;20043;-76
2022/06/11 13:28:15;;;;;;;9.63;3.05;;;;;;;;;;4966928;28;20489;-75
2022/06/11 13:31:04;;;;;;;;;;;;;;;;;;4901757;29;20071;-72
2022/06/11 13:33:49;;;;;;;11.25;2.60;;;;;;;;;;4892981;29;19954;-75
2022/06/11 13:36:57;;;;;;;9.38;3.20;;;;;;;;;;4900519;29;20083;-75
2022/06/11 13:39:38;;;;;;;10.77;2.97;;;;;;;;;;4850237;29;20069;-75
2022/06/11 13:42:37;;;;;;;12.48;3.20;;;;;;;;;;4850732;29;20136;-75
2022/06/11 13:45:45;;;;;;;10.75;2.97;;;;;;;;;;4846657;29;20084;-73
2022/06/11 13:48:29;;;;;;;11.90;3.80;;;;;;;;;;4848427;29;20137;-75
2022/06/11 13:51:22;;;;;;;13.77;3.38;;;;;;;;;;4847938;29;20057;-75
2022/06/11 13:56:41;;;;;;;10.32;3.13;;;;;;;;;;4848496;29;20057;-78
2022/06/11 13:59:10;;;;;;;10.27;3.55;;;;;;;;;;4850294;29;20407;-76
2022/06/11 14:02:01;;;;;;;14.55;3.88;;;;;;;;;;4878289;29;20613;-75
2022/06/11 14:04:37;;;;;;;13.15;3.33;;;;;;;;;;4893527;29;20052;-78
2022/06/11 14:07:09;;;;;;;11.57;3.33;;;;;;;;;;4895879;29;20082;-76
2022/06/11 14:12:41;;;;;;;9.18;3.17;;;;;;;;;;4895620;29;20059;-75
2022/06/11 14:15:38;;;;;;;9.73;3.00;;;;;;;;;;4893486;29;20143;-72
2022/06/11 14:18:26;;;;;;;8.38;2.63;;;;;;;;;;4964614;28;20134;-75
2022/06/11 14:20:56;;;;;;;13.35;3.20;;;;;;;;;;4963162;28;20051;-75
2022/06/11 14:23:24;;;;;;;12.35;3.15;;;;;;;;;;4964884;28;20085;-74
2022/06/11 14:26:04;;;;;;;12.45;3.17;;;;;;;;;;4958306;28;20050;-75
2022/06/11 14:28:36;;;;;;;11.55;2.80;;;;;;;;;;4965330;28;20058;-76
2022/06/11 14:31:04;;;;;;;8.77;2.75;;;;;;;;;;4965055;28;20700;-76
2022/06/11 14:33:55;;;;;;;12.15;2.65;;;;;;;;;;4963100;28;20081;-75
2022/06/11 14:36:25;;;;;;;9.85;2.50;;;;;;;;;;4916559;28;20069;-76
2022/06/11 14:39:00;;;;;;;10.18;2.60;;;;;;;;;;4963613;28;20047;-73
2022/06/11 14:41:25;;;;;;;9.93;2.38;;;;;;;;;;4959979;28;20480;-72
2022/06/11 14:43:55;;;;;;;12.45;2.78;;;;;;;;;;4963970;28;20054;-75
2022/06/11 14:46:36;;;;;;;8.65;2.38;;;;;;;;;;4960511;28;20070;-74
2022/06/11 14:49:02;;;;;;;9.85;2.50;;;;;;;;;;4962740;28;20051;-76
2022/06/11 14:51:32;;;;;;;13.57;3.05;;;;;;;;;;4962244;28;20116;-75
2022/06/11 14:54:28;;;;;;;11.93;2.60;;;;;;;;;;4962301;28;20090;-73
2022/06/11 14:57:12;;;;;;;11.27;2.72;;;;;;;;;;4962839;28;20051;-78
2022/06/11 15:00:10;;;;;;;8.68;2.15;;;;;;;;;;4963559;28;20120;-71
2022/06/11 15:02:57;;;;;;;9.32;2.28;;;;;;;;;;4960696;28;20054;-75
2022/06/11 15:05:45;;;;;;;9.68;2.10;;;;;;;;;;4958548;28;20085;-75
2022/06/11 15:08:14;;;;;;;9.80;2.47;;;;;;;;;;4960689;28;20555;-73
2022/06/11 15:11:08;;;;;;;8.10;1.98;;;;;;;;;;4962213;28;20043;-74
2022/06/11 15:14:22;;;;;;;10.25;2.05;;;;;;;;;;4961666;28;20058;-74
2022/06/11 15:16:49;;;;;;;5.53;1.48;;;;;;;;;;4962698;28;20046;-75
2022/06/11 15:19:18;;;;;;;6.13;1.75;;;;;;;;;;4960603;28;20456;-74
2022/06/11 15:21:53;;;;;;;11.10;1.95;;;;;;;;;;4962484;28;20078;-73
2022/06/11 15:24:28;;;;;;;5.90;1.90;;;;;;;;;;4956769;28;20419;-73
2022/06/11 15:26:58;;;;;;;8.30;1.88;;;;;;;;;;4962363;28;20460;-77